Time;durP1;ratioP1;P1;durP2;ratioP2;P2;SDS_P1;SDS_P2;PMS_P1;PMS_P2;Temp;Humidity;BMP_temperature;BMP_pressure;BME280_temperature;BME280_humidity;BME280_pressure;Samples;Min_cycle;Max_cycle;Signal;HPM_P1;HPM_P2
2024/01/22 00:01:27;;;;;;;0.30;0.30;;;;;;;0.80;58.20;103439.00;4915357;29;20435;-88
2024/01/22 00:03:53;;;;;;;1.80;1.50;;;;;;;0.88;58.11;103443.13;4916405;29;20916;-88
2024/01/22 00:06:19;;;;;;;0.75;0.75;;;;;;;0.87;58.23;103448.41;4916388;29;20429;-88
2024/01/22 00:08:44;;;;;;;0.80;0.60;;;;;;;0.95;58.17;103447.31;4913855;29;20432;-89
2024/01/22 00:11:11;;;;;;;1.40;1.30;;;;;;;0.94;58.06;103448.19;4905096;29;20420;-88
2024/01/22 00:13:37;;;;;;;0.60;0.60;;;;;;;0.95;57.90;103454.25;4913235;29;20414;-89
2024/01/22 00:16:03;;;;;;;0.50;0.50;;;;;;;0.89;58.09;103450.06;4907815;29;20477;-89
2024/01/22 00:18:28;;;;;;;0.63;0.63;;;;;;;0.75;58.24;103444.34;4920785;29;20832;-88
2024/01/22 00:20:54;;;;;;;0.68;0.68;;;;;;;0.71;58.38;103448.78;4927632;29;20424;-89
2024/01/22 00:23:19;;;;;;;0.52;0.40;;;;;;;0.67;58.59;103449.75;4919476;29;20402;-87
2024/01/22 00:25:45;;;;;;;1.35;0.80;;;;;;;0.62;58.53;103450.75;4927377;29;20412;-88
2024/01/22 00:28:11;;;;;;;1.17;1.08;;;;;;;0.51;59.04;103451.03;4938556;29;20403;-88
2024/01/22 00:30:36;;;;;;;0.32;0.30;;;;;;;0.67;58.51;103449.75;4932488;29;20416;-90
2024/01/22 00:33:02;;;;;;;0.60;0.50;;;;;;;0.85;58.38;103458.88;4924481;29;20401;-90
2024/01/22 00:35:37;;;;;;;0.65;0.60;;;;;;;0.96;57.77;103458.59;4921554;29;20468;-90
2024/01/22 00:38:06;;;;;;;0.57;0.57;;;;;;;0.98;57.87;103458.56;4920564;29;20510;-90
2024/01/22 00:40:31;;;;;;;1.23;0.85;;;;;;;1.00;58.01;103443.72;4918023;29;20401;-90
2024/01/22 00:42:57;;;;;;;0.82;0.75;;;;;;;0.93;57.99;103458.69;4917032;29;20471;-90
2024/01/22 00:45:22;;;;;;;1.50;1.40;;;;;;;0.73;58.45;103461.78;4916751;29;20397;-91
2024/01/22 00:47:48;;;;;;;0.57;0.57;;;;;;;0.77;58.55;103458.19;4916415;29;20494;-91
2024/01/22 00:50:17;;;;;;;1.00;0.85;;;;;;;0.67;58.91;103462.81;4919406;29;20722;-92
2024/01/22 00:52:42;;;;;;;1.45;1.35;;;;;;;0.63;59.29;103462.91;4917459;29;20400;-92
2024/01/22 00:55:08;;;;;;;1.23;1.10;;;;;;;0.56;59.04;103465.69;4916681;29;20388;-90
2024/01/22 00:57:33;;;;;;;1.17;0.70;;;;;;;0.52;59.59;103469.25;4914818;29;20404;-89
2024/01/22 00:59:59;;;;;;;0.70;0.50;;;;;;;0.55;59.26;103466.56;4902231;29;20417;-90
2024/01/22 01:02:25;;;;;;;1.00;0.90;;;;;;;0.49;59.35;103463.25;4908498;29;20412;-90
2024/01/22 01:04:51;;;;;;;1.02;0.93;;;;;;;0.47;59.58;103457.19;4904973;29;20396;-87
2024/01/22 01:07:19;;;;;;;0.55;0.40;;;;;;;0.48;59.32;103457.16;4917997;29;20392;-89
2024/01/22 01:09:45;;;;;;;1.15;0.75;;;;;;;0.52;59.20;103457.94;4915473;29;20465;-87
2024/01/22 01:12:10;;;;;;;1.50;1.20;;;;;;;0.46;59.52;103453.72;4928304;29;20412;-92
2024/01/22 01:14:36;;;;;;;0.85;0.75;;;;;;;0.57;59.06;103461.31;4914734;29;20479;-89
2024/01/22 01:17:02;;;;;;;0.80;0.63;;;;;;;0.54;59.13;103453.53;4908521;29;20409;-88
2024/01/22 01:19:27;;;;;;;1.10;0.90;;;;;;;0.41;59.35;103458.19;4915499;29;20487;-89
2024/01/22 01:21:53;;;;;;;0.77;0.50;;;;;;;0.41;59.55;103454.75;4915328;29;20988;-88
2024/01/22 01:24:19;;;;;;;1.50;1.40;;;;;;;0.36;59.39;103447.00;4910285;29;20928;-89
2024/01/22 01:26:45;;;;;;;1.63;0.93;;;;;;;0.36;59.59;103460.06;4907855;29;20417;-89
2024/01/22 01:29:11;;;;;;;2.67;1.60;;;;;;;0.32;59.73;103448.81;4923663;29;20435;-86
2024/01/22 01:31:40;;;;;;;0.52;0.52;;;;;;;0.48;59.41;103451.09;4908822;29;20436;-90
2024/01/22 01:34:08;;;;;;;0.90;0.70;;;;;;;0.61;59.00;103462.94;4897562;29;20462;-89
2024/01/22 01:36:33;;;;;;;1.92;0.88;;;;;;;0.53;59.14;103457.06;4906540;29;20451;-89
2024/01/22 01:38:59;;;;;;;1.55;1.40;;;;;;;0.53;59.18;103457.06;4927798;29;20476;-89
2024/01/22 01:41:27;;;;;;;1.02;0.47;;;;;;;0.37;59.17;103449.59;4912787;29;20465;-90
2024/01/22 01:43:53;;;;;;;2.43;1.70;;;;;;;0.35;59.14;103453.13;4933868;29;20440;-88
2024/01/22 01:46:18;;;;;;;0.70;0.60;;;;;;;0.29;59.56;103448.91;4923311;29;20422;-89
2024/01/22 01:48:44;;;;;;;1.33;0.87;;;;;;;0.41;59.35;103447.75;4902509;29;20919;-89
2024/01/22 01:51:16;;;;;;;1.00;0.60;;;;;;;0.53;59.02;103430.97;4911244;29;20442;-89
2024/01/22 01:53:46;;;;;;;1.30;0.70;;;;;;;0.67;58.47;103435.84;4908581;29;20501;-88
2024/01/22 01:56:12;;;;;;;1.25;0.75;;;;;;;0.76;58.63;103439.06;4861049;29;20425;-89
2024/01/22 01:58:39;;;;;;;1.23;0.80;;;;;;;0.66;58.57;103441.97;4876571;29;20965;-89
2024/01/22 02:01:06;;;;;;;0.73;0.73;;;;;;;0.52;58.54;103444.91;4863778;29;20418;-89
2024/01/22 02:03:32;;;;;;;0.65;0.65;;;;;;;0.54;58.77;103435.25;4897973;29;20402;-90
2024/01/22 02:05:58;;;;;;;0.50;0.40;;;;;;;0.54;58.49;103435.25;4910630;29;20842;-89
2024/01/22 02:08:26;;;;;;;1.60;1.02;;;;;;;0.50;58.86;103433.63;4902120;29;21004;-90
2024/01/22 02:10:52;;;;;;;0.40;0.40;;;;;;;0.60;59.14;103437.75;4895190;29;20448;-90
2024/01/22 02:13:17;;;;;;;0.37;0.37;;;;;;;0.71;58.57;103427.03;4895351;29;20425;-89
2024/01/22 02:15:43;;;;;;;0.20;0.20;;;;;;;0.86;58.52;103426.63;4907329;29;20417;-87
2024/01/22 02:18:09;;;;;;;0.60;0.60;;;;;;;0.89;58.07;103430.94;4906022;29;20406;-87
2024/01/22 02:20:35;;;;;;;0.40;0.40;;;;;;;0.88;57.90;103427.47;4894436;29;20460;-87
2024/01/22 02:23:06;;;;;;;1.27;1.17;;;;;;;0.92;57.84;103439.53;4903256;29;20412;-87
2024/01/22 02:25:34;;;;;;;0.90;0.90;;;;;;;0.77;57.89;103437.31;4896763;29;20490;-86
2024/01/22 02:28:05;;;;;;;0.50;0.50;;;;;;;0.70;58.41;103438.38;4894072;29;20408;-87
2024/01/22 02:30:30;;;;;;;0.40;0.30;;;;;;;0.79;58.27;103435.50;4897898;29;20422;-87
2024/01/22 02:32:56;;;;;;;2.07;1.13;;;;;;;0.70;58.44;103444.47;4892002;29;20465;-87
2024/01/22 02:35:22;;;;;;;0.47;0.47;;;;;;;0.67;58.27;103434.09;4898770;29;20969;-87
2024/01/22 02:37:48;;;;;;;0.37;0.37;;;;;;;0.58;58.28;103434.31;4911719;29;20411;-87
2024/01/22 02:40:13;;;;;;;1.40;1.30;;;;;;;0.28;59.01;103439.38;4910890;29;20399;-85
2024/01/22 02:42:39;;;;;;;0.73;0.70;;;;;;;0.40;59.59;103440.84;4910644;29;20904;-86
2024/01/22 02:45:07;;;;;;;0.93;0.93;;;;;;;0.43;59.26;103435.53;4929816;29;20404;-86
2024/01/22 02:47:33;;;;;;;1.90;1.80;;;;;;;0.49;58.89;103434.56;4924382;29;20433;-86
2024/01/22 02:50:00;;;;;;;1.20;1.10;;;;;;;0.50;58.70;103424.03;4896515;29;20492;-86
2024/01/22 02:52:25;;;;;;;0.93;0.93;;;;;;;0.61;58.43;103433.38;4896296;29;20486;-86
2024/01/22 02:54:51;;;;;;;0.90;0.90;;;;;;;0.63;58.31;103428.97;4896437;29;20402;-86
2024/01/22 02:57:17;;;;;;;0.67;0.67;;;;;;;0.47;58.08;103433.69;4900511;29;20980;-86
2024/01/22 02:59:43;;;;;;;0.80;0.80;;;;;;;0.28;59.05;103426.31;4914304;29;20407;-87
2024/01/22 03:02:11;;;;;;;0.85;0.75;;;;;;;0.42;58.65;103422.53;4914175;29;20464;-87
2024/01/22 03:04:36;;;;;;;0.88;0.88;;;;;;;0.46;58.64;103429.41;4915647;29;20487;-87
2024/01/22 03:07:02;;;;;;;0.50;0.50;;;;;;;0.52;58.49;103414.44;4919404;29;20506;-87
2024/01/22 03:09:30;;;;;;;0.85;0.85;;;;;;;0.48;58.73;103420.63;4935713;29;20404;-84
2024/01/22 03:11:56;;;;;;;3.53;1.17;;;;;;;0.50;58.86;103415.38;4931594;29;20499;-87
2024/01/22 03:14:22;;;;;;;0.50;0.50;;;;;;;0.53;58.71;103412.69;4915207;29;20456;-86
2024/01/22 03:16:47;;;;;;;1.60;1.50;;;;;;;0.52;58.58;103416.19;4916799;29;20978;-89
2024/01/22 03:19:13;;;;;;;1.30;1.20;;;;;;;0.52;58.93;103417.06;4904744;29;20402;-89
2024/01/22 03:21:38;;;;;;;0.50;0.50;;;;;;;0.56;58.60;103417.84;4912706;29;20567;-89
2024/01/22 03:24:05;;;;;;;1.00;0.93;;;;;;;0.54;58.44;103419.59;4913883;29;20414;-89
2024/01/22 03:26:30;;;;;;;0.70;0.70;;;;;;;0.51;58.65;103417.94;4902046;29;20413;-89
2024/01/22 03:28:56;;;;;;;0.70;0.70;;;;;;;0.53;58.76;103418.75;4923848;29;20461;-87
2024/01/22 03:31:26;;;;;;;0.60;0.60;;;;;;;0.44;58.46;103418.13;4923460;29;21029;-89
2024/01/22 03:33:53;;;;;;;0.22;0.22;;;;;;;0.52;58.41;103416.19;4921190;29;20489;-88
2024/01/22 03:36:19;;;;;;;0.90;0.63;;;;;;;0.52;58.18;103421.41;4918300;29;20432;-88
2024/01/22 03:38:48;;;;;;;0.70;0.70;;;;;;;0.36;58.33;103427.00;4915852;29;20773;-87
2024/01/22 03:41:14;;;;;;;0.70;0.70;;;;;;;0.23;58.58;103428.19;4915394;29;20593;-88
2024/01/22 03:43:44;;;;;;;1.17;0.90;;;;;;;0.35;58.68;103421.81;4915914;29;20869;-88
2024/01/22 03:46:15;;;;;;;0.80;0.70;;;;;;;0.41;58.53;103426.88;4913910;29;20958;-90
2024/01/22 03:48:40;;;;;;;1.85;0.90;;;;;;;0.50;58.15;103429.25;4914857;29;20487;-87
2024/01/22 03:51:08;;;;;;;1.95;1.27;;;;;;;0.59;57.98;103432.56;4915261;29;20511;-87
2024/01/22 03:53:34;;;;;;;0.63;0.50;;;;;;;0.59;58.03;103430.78;4904093;29;20413;-86
2024/01/22 03:56:05;;;;;;;0.97;0.90;;;;;;;0.51;57.97;103436.22;4909217;29;20401;-88
2024/01/22 03:58:33;;;;;;;3.20;2.92;;;;;;;0.09;59.00;103427.63;4912669;29;20972;-88
2024/01/22 04:01:00;;;;;;;0.55;0.45;;;;;;;0.11;59.29;103439.75;4915309;29;20451;-90
2024/01/22 04:03:26;;;;;;;0.50;0.50;;;;;;;0.24;59.07;103437.72;4915559;29;20876;-89
2024/01/22 04:05:52;;;;;;;1.02;1.02;;;;;;;0.37;58.91;103425.25;4915471;29;20920;-88
2024/01/22 04:08:17;;;;;;;0.20;0.20;;;;;;;0.65;58.44;103420.22;4915678;29;20451;-88
2024/01/22 04:10:43;;;;;;;0.50;0.50;;;;;;;0.82;57.87;103424.16;4929283;29;20408;-87
2024/01/22 04:13:09;;;;;;;0.40;0.40;;;;;;;0.97;57.52;103422.88;4914865;29;20484;-88
2024/01/22 04:15:34;;;;;;;0.30;0.30;;;;;;;1.00;57.42;103435.88;4916163;29;20392;-89
2024/01/22 04:18:00;;;;;;;0.35;0.35;;;;;;;1.02;57.25;103436.69;4914341;29;20934;-88
2024/01/22 04:20:26;;;;;;;0.70;0.70;;;;;;;1.08;57.20;103442.63;4915471;29;20492;-89
2024/01/22 04:22:52;;;;;;;1.02;0.93;;;;;;;1.09;57.15;103439.09;4914523;29;20393;-87
2024/01/22 04:25:18;;;;;;;0.47;0.45;;;;;;;1.14;57.06;103436.38;4914790;29;20492;-88
2024/01/22 04:27:44;;;;;;;0.60;0.60;;;;;;;1.20;56.95;103446.63;4914601;29;20907;-87
2024/01/22 04:30:11;;;;;;;0.82;0.70;;;;;;;1.20;56.87;103437.94;4912976;29;20475;-87
2024/01/22 04:32:36;;;;;;;0.30;0.30;;;;;;;1.13;57.07;103443.34;4914737;29;20950;-87
2024/01/22 04:35:04;;;;;;;0.22;0.22;;;;;;;1.05;56.73;103447.06;4913218;29;20440;-88
2024/01/22 04:37:30;;;;;;;0.45;0.45;;;;;;;0.98;57.34;103448.13;4912730;29;20401;-87
2024/01/22 04:40:07;;;;;;;0.70;0.70;;;;;;;0.78;57.61;103451.25;4916102;29;20400;-88
2024/01/22 04:42:33;;;;;;;1.08;1.02;;;;;;;0.74;57.77;103453.06;4902457;29;20827;-87
2024/01/22 04:44:59;;;;;;;1.00;0.95;;;;;;;0.73;57.76;103456.56;4899228;29;20418;-88
2024/01/22 04:47:25;;;;;;;0.47;0.47;;;;;;;0.81;57.84;103456.38;4901103;29;20400;-88
2024/01/22 04:49:50;;;;;;;1.17;1.17;;;;;;;0.79;57.78;103451.19;4908226;29;20486;-88
2024/01/22 04:52:16;;;;;;;1.10;1.10;;;;;;;0.82;57.69;103442.44;4896917;29;21146;-87
2024/01/22 04:54:42;;;;;;;0.52;0.52;;;;;;;0.97;57.62;103449.00;4904388;29;20430;-89
2024/01/22 04:57:07;;;;;;;0.90;0.90;;;;;;;0.99;57.66;103449.81;4920536;29;20443;-89
2024/01/22 04:59:33;;;;;;;0.60;0.60;;;;;;;1.04;57.27;103447.94;4909239;29;20971;-87
2024/01/22 05:01:59;;;;;;;0.55;0.55;;;;;;;0.94;57.01;103463.88;4911261;29;20432;-90
2024/01/22 05:04:25;;;;;;;0.70;0.50;;;;;;;0.90;57.68;103451.78;4903887;29;20428;-89
2024/01/22 05:06:50;;;;;;;1.52;1.13;;;;;;;0.90;57.61;103451.78;4895583;29;20406;-88
2024/01/22 05:09:16;;;;;;;1.10;1.00;;;;;;;0.92;57.59;103456.97;4903685;29;20394;-85
2024/01/22 05:11:44;;;;;;;0.40;0.40;;;;;;;0.89;57.49;103460.50;4944547;29;20422;-89
2024/01/22 05:14:10;;;;;;;0.40;0.40;;;;;;;0.87;57.61;103451.00;4896226;29;20454;-89
2024/01/22 05:16:37;;;;;;;0.90;0.90;;;;;;;0.89;57.50;103450.06;4927655;29;20410;-89
2024/01/22 05:19:03;;;;;;;2.75;1.77;;;;;;;0.84;57.32;103451.94;4914199;29;20780;-89
2024/01/22 05:21:29;;;;;;;1.30;0.85;;;;;;;0.74;58.08;103445.25;4915538;29;20435;-90
2024/01/22 05:23:54;;;;;;;0.77;0.77;;;;;;;0.89;57.54;103454.44;4915821;29;20396;-88
2024/01/22 05:26:20;;;;;;;0.95;0.80;;;;;;;0.95;57.40;103456.88;4916345;29;20396;-88
2024/01/22 05:28:46;;;;;;;1.90;1.70;;;;;;;0.83;57.89;103458.06;4924081;29;20396;-87
2024/01/22 05:31:12;;;;;;;0.50;0.50;;;;;;;0.97;57.37;103465.53;4925264;29;20545;-88
2024/01/22 05:33:37;;;;;;;0.60;0.60;;;;;;;0.83;57.64;103457.19;4914985;29;20404;-89
2024/01/22 05:36:03;;;;;;;1.30;1.20;;;;;;;0.75;57.86;103460.84;4914872;29;20440;-89
2024/01/22 05:38:29;;;;;;;1.47;1.37;;;;;;;0.86;58.06;103459.72;4915032;29;20408;-88
2024/01/22 05:40:54;;;;;;;0.43;0.43;;;;;;;0.89;57.61;103457.91;4914869;29;20912;-89
2024/01/22 05:43:20;;;;;;;0.60;0.60;;;;;;;0.88;57.97;103452.72;4914537;29;20487;-89
2024/01/22 05:45:46;;;;;;;1.50;1.10;;;;;;;1.02;57.86;103447.97;4913547;29;20404;-89
2024/01/22 05:48:11;;;;;;;0.90;0.70;;;;;;;1.19;57.12;103460.63;4913383;29;20837;-87
2024/01/22 05:50:37;;;;;;;1.53;1.43;;;;;;;1.16;57.05;103449.41;4914585;29;20773;-87
2024/01/22 05:53:06;;;;;;;0.60;0.60;;;;;;;1.23;57.13;103453.56;4932502;29;20482;-90
2024/01/22 05:55:31;;;;;;;0.67;0.57;;;;;;;1.20;57.10;103457.09;4933025;29;20788;-88
2024/01/22 05:57:58;;;;;;;0.80;0.70;;;;;;;1.08;57.28;103463.50;4917423;29;20415;-88
2024/01/22 06:00:26;;;;;;;0.60;0.60;;;;;;;1.18;57.62;103460.66;4930697;29;20404;-88
2024/01/22 06:02:51;;;;;;;0.45;0.45;;;;;;;1.19;57.04;103462.34;4916623;29;20399;-88
2024/01/22 06:05:18;;;;;;;0.90;0.90;;;;;;;1.04;57.13;103466.22;4913530;29;20784;-87
2024/01/22 06:07:44;;;;;;;1.05;1.05;;;;;;;0.94;57.90;103469.09;4912911;29;20408;-87
2024/01/22 06:10:10;;;;;;;0.67;0.67;;;;;;;1.01;57.83;103467.19;4912476;29;20804;-88
2024/01/22 06:12:35;;;;;;;0.68;0.60;;;;;;;0.85;57.73;103466.72;4914492;29;20400;-87
2024/01/22 06:15:01;;;;;;;1.20;1.10;;;;;;;0.97;57.64;103472.50;4915303;29;20788;-88
2024/01/22 06:17:32;;;;;;;0.63;0.63;;;;;;;1.01;57.61;103468.91;4916031;29;20400;-88
2024/01/22 06:19:59;;;;;;;0.60;0.60;;;;;;;0.94;57.29;103463.00;4921492;29;20466;-88
2024/01/22 06:22:25;;;;;;;1.45;1.42;;;;;;;0.92;57.78;103463.03;4919640;29;20456;-88
2024/01/22 06:24:50;;;;;;;0.73;0.73;;;;;;;1.07;57.69;103455.72;4924128;29;20393;-89
2024/01/22 06:27:16;;;;;;;0.73;0.73;;;;;;;1.01;57.51;103461.09;4921609;29;20395;-88
2024/01/22 06:29:42;;;;;;;0.93;0.93;;;;;;;0.94;57.71;103458.63;4935602;29;20522;-88
2024/01/22 06:32:08;;;;;;;1.20;1.10;;;;;;;1.08;57.47;103450.44;4919032;29;20452;-87
2024/01/22 06:34:35;;;;;;;1.48;1.20;;;;;;;1.24;57.25;103456.13;4916898;29;20409;-88
2024/01/22 06:37:01;;;;;;;0.60;0.30;;;;;;;1.35;57.20;103455.81;4918488;29;20396;-88
2024/01/22 06:39:26;;;;;;;0.93;0.93;;;;;;;1.24;56.88;103450.91;4919395;29;20403;-87
2024/01/22 06:41:52;;;;;;;0.73;0.70;;;;;;;1.39;57.09;103465.31;4917913;29;20388;-88
2024/01/22 06:44:17;;;;;;;0.47;0.40;;;;;;;1.46;56.90;103472.06;4921442;29;20463;-87
2024/01/22 06:46:44;;;;;;;0.57;0.57;;;;;;;1.54;56.97;103471.84;4923192;29;20425;-86
2024/01/22 06:49:10;;;;;;;0.60;0.60;;;;;;;1.55;56.78;103460.50;4921396;29;20400;-87
2024/01/22 06:51:36;;;;;;;0.60;0.60;;;;;;;1.61;56.50;103456.84;4925114;29;20429;-86
2024/01/22 06:54:02;;;;;;;1.20;1.00;;;;;;;1.55;56.58;103460.50;4925306;29;20450;-87
2024/01/22 06:56:27;;;;;;;0.28;0.28;;;;;;;1.57;56.60;103463.94;4890154;29;20408;-87
2024/01/22 06:58:54;;;;;;;0.30;0.30;;;;;;;1.44;56.83;103446.84;4922038;29;20480;-88
2024/01/22 07:01:20;;;;;;;0.52;0.47;;;;;;;1.53;56.76;103459.66;4923772;29;20466;-91
2024/01/22 07:03:47;;;;;;;0.45;0.45;;;;;;;1.64;56.44;103455.00;4923393;29;20393;-89
2024/01/22 07:06:14;;;;;;;1.73;1.63;;;;;;;1.57;56.45;103450.84;4907773;29;20424;-88
2024/01/22 07:08:40;;;;;;;1.00;1.00;;;;;;;1.55;56.78;103455.28;4941609;29;20500;-87
2024/01/22 07:11:06;;;;;;;0.68;0.68;;;;;;;1.56;56.72;103450.91;4946849;29;20408;-85
2024/01/22 07:13:35;;;;;;;0.80;0.80;;;;;;;1.59;56.64;103459.50;4926221;29;20397;-88
2024/01/22 07:16:01;;;;;;;0.80;0.80;;;;;;;1.48;56.71;103454.59;4923405;29;20934;-87
2024/01/22 07:18:27;;;;;;;0.90;0.90;;;;;;;1.31;56.98;103464.63;4924143;29;20415;-88
2024/01/22 07:20:53;;;;;;;3.20;2.20;;;;;;;1.35;56.96;103471.47;4928597;29;20480;-87
2024/01/22 07:23:20;;;;;;;1.00;1.00;;;;;;;1.39;57.29;103473.13;4920082;29;20448;-88
2024/01/22 07:25:48;;;;;;;0.20;0.20;;;;;;;1.51;56.89;103472.81;4936974;29;20397;-88
2024/01/22 07:28:13;;;;;;;1.40;1.40;;;;;;;1.56;56.96;103482.28;4925028;29;20392;-87
2024/01/22 07:30:39;;;;;;;0.30;0.30;;;;;;;1.62;56.58;103472.50;4934786;29;20424;-87
2024/01/22 07:33:05;;;;;;;0.60;0.60;;;;;;;1.55;56.45;103480.53;4923067;29;20784;-89
2024/01/22 07:35:31;;;;;;;1.00;0.93;;;;;;;1.44;56.69;103481.72;4919758;29;20400;-89
2024/01/22 07:37:57;;;;;;;1.30;1.20;;;;;;;1.16;57.40;103484.19;4919891;29;20409;-87
2024/01/22 07:40:22;;;;;;;1.60;1.50;;;;;;;1.21;57.45;103486.72;4921403;29;20412;-88
2024/01/22 07:42:48;;;;;;;1.07;1.07;;;;;;;1.32;57.38;103475.06;4918414;29;20821;-89
2024/01/22 07:45:15;;;;;;;0.98;0.98;;;;;;;1.32;56.93;103475.06;4888791;29;20407;-88
2024/01/22 07:47:43;;;;;;;0.50;0.50;;;;;;;1.38;56.75;103494.09;4935826;29;20397;-87
2024/01/22 07:50:14;;;;;;;1.00;1.00;;;;;;;1.26;56.96;103496.13;4935041;29;20431;-87
2024/01/22 07:52:41;;;;;;;0.60;0.60;;;;;;;1.27;57.29;103504.81;4924073;29;20412;-87
2024/01/22 07:55:08;;;;;;;0.35;0.35;;;;;;;1.21;57.31;103502.38;4899908;29;20393;-87
2024/01/22 07:57:34;;;;;;;0.60;0.60;;;;;;;1.40;57.08;103493.13;4917693;29;20495;-87
2024/01/22 08:00:19;;;;;;;0.60;0.60;;;;;;;1.57;56.42;103495.31;4901891;29;20397;-88
2024/01/22 08:02:44;;;;;;;1.25;1.15;;;;;;;1.62;56.56;103506.50;4917123;29;20403;-87
2024/01/22 08:05:13;;;;;;;2.23;2.03;;;;;;;1.40;56.80;103494.91;4917533;29;20408;-88
2024/01/22 08:07:39;;;;;;;2.50;2.38;;;;;;;1.48;56.97;103504.25;4903076;29;20401;-87
2024/01/22 08:10:05;;;;;;;1.13;1.10;;;;;;;1.46;56.49;103502.56;4889103;29;20413;-89
2024/01/22 08:12:31;;;;;;;5.30;2.10;;;;;;;1.43;56.45;103513.97;4918165;29;20505;-88
2024/01/22 08:14:56;;;;;;;0.90;0.90;;;;;;;1.30;57.02;103520.44;4918628;29;20411;-87
2024/01/22 08:17:22;;;;;;;0.65;0.65;;;;;;;1.23;57.05;103516.25;4920431;29;20404;-87
2024/01/22 08:19:48;;;;;;;2.25;1.70;;;;;;;0.78;57.93;103519.13;4922580;29;20460;-87
2024/01/22 08:22:14;;;;;;;1.00;0.98;;;;;;;0.74;58.58;103526.19;4905876;29;20489;-88
2024/01/22 08:24:39;;;;;;;0.80;0.80;;;;;;;0.87;57.95;103519.75;4906209;29;20388;-87
2024/01/22 08:27:06;;;;;;;2.00;1.85;;;;;;;0.89;57.97;103523.19;4924119;29;20404;-86
2024/01/22 08:29:31;;;;;;;0.90;0.88;;;;;;;0.91;57.98;103523.16;4920275;29;20937;-87
2024/01/22 08:31:57;;;;;;;0.63;0.63;;;;;;;0.95;57.67;103527.41;4933322;29;20491;-87
2024/01/22 08:34:22;;;;;;;0.93;0.93;;;;;;;0.82;58.06;103526.00;4922410;29;20397;-86
2024/01/22 08:36:48;;;;;;;0.40;0.40;;;;;;;0.46;59.16;103526.81;4922854;29;20396;-88
2024/01/22 08:39:14;;;;;;;0.73;0.70;;;;;;;0.46;59.03;103528.56;4920883;29;21054;-88
2024/01/22 08:41:39;;;;;;;1.00;0.82;;;;;;;0.59;58.61;103535.22;4922084;29;20407;-88
2024/01/22 08:44:05;;;;;;;1.10;1.10;;;;;;;0.63;58.69;103530.78;4920596;29;20558;-86
2024/01/22 08:46:34;;;;;;;0.60;0.60;;;;;;;0.73;58.67;103527.91;4952663;29;20420;-87
2024/01/22 08:49:03;;;;;;;0.43;0.43;;;;;;;0.75;58.29;103528.72;4939264;29;20429;-88
2024/01/22 08:51:31;;;;;;;0.70;0.70;;;;;;;0.88;58.30;103524.09;4940226;29;20416;-89
2024/01/22 08:53:57;;;;;;;2.38;1.08;;;;;;;1.05;57.92;103533.28;4954261;29;20408;-87
2024/01/22 08:56:22;;;;;;;1.42;0.95;;;;;;;1.00;58.12;103535.97;4948912;29;20508;-88
2024/01/22 08:58:48;;;;;;;1.27;1.17;;;;;;;0.96;58.04;103523.91;4917974;29;20645;-85
2024/01/22 09:01:14;;;;;;;0.20;0.20;;;;;;;0.89;58.38;103532.78;4921889;29;20829;-87
2024/01/22 09:03:39;;;;;;;0.67;0.67;;;;;;;1.01;58.02;103516.81;4921781;29;20393;-87
2024/01/22 09:06:05;;;;;;;0.50;0.50;;;;;;;1.05;58.10;103520.22;4922060;29;20436;-88
2024/01/22 09:08:33;;;;;;;0.97;0.50;;;;;;;1.02;58.05;103521.13;4940759;29;20841;-84
2024/01/22 09:10:59;;;;;;;1.43;1.33;;;;;;;0.90;58.23;103511.84;4929387;29;20412;-83
2024/01/22 09:13:24;;;;;;;1.10;1.05;;;;;;;0.93;58.00;103518.75;4926352;29;20411;-86
2024/01/22 09:15:52;;;;;;;0.55;0.55;;;;;;;0.99;58.32;103515.13;4927459;29;20388;-87
2024/01/22 09:18:18;;;;;;;0.80;0.73;;;;;;;1.02;58.24;103517.66;4921106;29;20424;-86
2024/01/22 09:20:43;;;;;;;0.68;0.68;;;;;;;1.00;58.01;103517.69;4922701;29;20428;-87
2024/01/22 09:23:09;;;;;;;0.63;0.63;;;;;;;0.93;57.99;103514.38;4921502;29;20484;-87
2024/01/22 09:25:36;;;;;;;0.77;0.77;;;;;;;1.00;57.98;103509.00;4923772;29;20392;-87
2024/01/22 09:28:05;;;;;;;0.45;0.45;;;;;;;1.13;58.02;103513.00;4921719;29;20419;-84
2024/01/22 09:30:30;;;;;;;1.10;1.00;;;;;;;1.19;57.71;103515.47;4924700;29;20928;-86
2024/01/22 09:32:58;;;;;;;0.47;0.47;;;;;;;0.86;57.94;103507.56;4917309;29;20393;-87
2024/01/22 09:35:24;;;;;;;0.70;0.70;;;;;;;0.96;58.09;103503.00;4918476;29;20471;-87
2024/01/22 09:37:54;;;;;;;1.90;1.80;;;;;;;0.93;57.98;103505.69;4920000;29;20401;-87
2024/01/22 09:40:23;;;;;;;0.50;0.50;;;;;;;1.00;57.90;103498.56;4919385;29;20476;-87
2024/01/22 09:42:50;;;;;;;1.10;1.00;;;;;;;1.04;57.90;103497.56;4918214;29;20848;-88
2024/01/22 09:45:16;;;;;;;0.70;0.70;;;;;;;1.14;57.33;103491.22;4917844;29;20530;-87
2024/01/22 09:47:44;;;;;;;1.27;1.17;;;;;;;0.99;57.71;103489.00;4918143;29;20420;-87
2024/01/22 09:50:11;;;;;;;0.30;0.30;;;;;;;0.87;58.01;103495.41;4917730;29;20409;-88
2024/01/22 09:52:43;;;;;;;0.80;0.80;;;;;;;0.87;57.98;103488.41;4917996;29;20408;-87
2024/01/22 09:55:09;;;;;;;1.10;1.00;;;;;;;0.90;57.93;103487.47;4916511;29;20393;-87
2024/01/22 09:57:38;;;;;;;0.70;0.52;;;;;;;1.05;57.92;103494.09;4916819;29;20401;-87
2024/01/22 10:00:05;;;;;;;0.40;0.40;;;;;;;1.14;57.58;103486.84;4916179;29;20400;-87
2024/01/22 10:02:31;;;;;;;6.82;1.70;;;;;;;1.01;57.60;103488.06;4903799;29;20944;-87
2024/01/22 10:04:58;;;;;;;0.30;0.30;;;;;;;0.86;57.91;103488.44;4888456;29;20459;-90
2024/01/22 10:07:26;;;;;;;0.57;0.57;;;;;;;0.72;58.31;103480.94;4870992;29;20508;-88
2024/01/22 10:09:53;;;;;;;0.60;0.60;;;;;;;0.90;57.91;103474.41;4918738;29;20449;-87
2024/01/22 10:12:19;;;;;;;0.50;0.45;;;;;;;1.07;57.58;103480.06;4921570;29;20416;-85
2024/01/22 10:14:45;;;;;;;0.50;0.50;;;;;;;1.21;57.41;103474.50;4903767;29;20491;-88
2024/01/22 10:17:18;;;;;;;0.40;0.40;;;;;;;1.06;57.34;103473.16;4917266;29;20431;-88
2024/01/22 10:19:46;;;;;;;1.30;1.20;;;;;;;0.95;57.70;103467.31;4918553;29;20392;-87
2024/01/22 10:22:14;;;;;;;1.00;1.00;;;;;;;0.92;57.56;103457.81;4898861;29;20420;-87
2024/01/22 10:24:40;;;;;;;1.10;1.00;;;;;;;0.66;58.25;103453.25;4915399;29;20396;-88
2024/01/22 10:27:14;;;;;;;0.30;0.30;;;;;;;0.76;58.19;103453.91;4916476;29;20463;-88
2024/01/22 10:29:39;;;;;;;0.80;0.80;;;;;;;1.02;58.01;103453.22;4914984;29;20404;-88
2024/01/22 10:32:05;;;;;;;0.70;0.70;;;;;;;1.23;57.62;103445.72;4901052;29;20418;-85
2024/01/22 10:34:53;;;;;;;0.70;0.70;;;;;;;1.27;57.13;103440.34;4914675;29;20492;-88
2024/01/22 10:37:19;;;;;;;1.52;1.42;;;;;;;1.21;57.30;103434.44;4903584;29;20401;-87
2024/01/22 10:40:03;;;;;;;0.90;0.90;;;;;;;1.37;57.44;103430.50;4906427;29;20394;-86
2024/01/22 10:42:31;;;;;;;0.52;0.52;;;;;;;1.50;57.07;103428.41;4902702;29;20489;-88
2024/01/22 10:44:57;;;;;;;6.20;5.57;;;;;;;1.23;57.18;103427.44;4903118;29;20490;-87
2024/01/22 10:47:23;;;;;;;4.47;2.80;;;;;;;1.25;57.09;103423.84;4884875;29;20441;-89
2024/01/22 10:49:53;;;;;;;1.40;1.30;;;;;;;1.22;57.00;103423.94;4885455;29;20406;-89
2024/01/22 10:52:23;;;;;;;6.20;5.70;;;;;;;1.31;56.96;103417.59;4883933;29;20430;-88
2024/01/22 10:54:49;;;;;;;2.97;2.78;;;;;;;1.30;56.99;103419.38;4897929;29;20390;-88
2024/01/22 10:57:19;;;;;;;2.47;2.33;;;;;;;1.34;56.82;103412.28;4881677;29;20505;-88
2024/01/22 10:59:48;;;;;;;2.25;2.15;;;;;;;1.34;56.95;103405.31;4880695;29;20829;-87
2024/01/22 11:02:23;;;;;;;5.25;4.30;;;;;;;1.31;57.16;103410.63;4880597;29;20391;-88
2024/01/22 11:05:01;;;;;;;0.80;0.80;;;;;;;1.30;56.79;103419.38;4882160;29;20410;-88
2024/01/22 11:07:30;;;;;;;1.25;1.10;;;;;;;1.33;57.17;103414.06;4886748;29;20410;-88
2024/01/22 11:09:58;;;;;;;1.42;1.20;;;;;;;1.46;56.82;103408.47;4891726;29;20406;-85
2024/01/22 11:12:33;;;;;;;0.60;0.60;;;;;;;1.47;56.69;103408.41;4907921;29;20513;-86
2024/01/22 11:14:59;;;;;;;1.88;1.75;;;;;;;1.31;56.73;103418.47;4900484;29;20425;-86
2024/01/22 11:17:25;;;;;;;0.70;0.70;;;;;;;1.31;57.31;103407.16;4902027;29;20448;-86
2024/01/22 11:20:11;;;;;;;0.80;0.50;;;;;;;1.55;56.85;103404.72;4901258;29;20411;-88
2024/01/22 11:22:38;;;;;;;1.23;1.13;;;;;;;1.32;56.80;103406.25;4920596;29;20424;-88
2024/01/22 11:25:12;;;;;;;1.40;1.30;;;;;;;1.18;57.48;103411.84;4933876;29;20416;-87
2024/01/22 11:27:39;;;;;;;1.75;0.98;;;;;;;1.13;57.10;103404.16;4918478;29;20869;-87
2024/01/22 11:30:30;;;;;;;0.22;0.22;;;;;;;1.19;57.00;103395.31;4926465;29;20403;-86
2024/01/22 11:32:56;;;;;;;2.40;1.58;;;;;;;1.04;57.12;103395.72;4887169;29;20413;-86